• Join FlightAware (Why Join?)
  • Login
  • US Flag 
02:41PM EST


 

Airport Tracker/Info


-or-


 

Live Flight TrackerFlight Track Log ✈ LXJ342 ✈ 08-May-2013 ✈ KTEB - KMDW

Flight Track Log - Related Links

Times and Time Zones

All times are in EDT time to prevent confusion due to time zone crossing. See the LXJ342 flight status page for this flight to view local times or setup timezone preferences in your user account.

Time Position Orientation Groundspeed Altitude Reporting Facility
EDT Latitude Longitude Course Direction KTS MPH feet Rate Location/Type
10:58PM 40.9167 -74.0333 288° West 241 277 2,000  Level New York TRACON
10:59PM 40.9333 -74.1000 288° West 211 243 2,600 1,320 Climbing New York TRACON
11:00PM 40.9167 -74.1833 255° West 233 268 4,700 2,220 Climbing New York TRACON
11:01PM 40.9000 -74.2833 258° West 261 300 7,100 2,220 Climbing New York TRACON
11:02PM 40.9000 -74.3667 270° West 276 318 9,000 2,100 Climbing New York TRACON
11:03PM 40.8906 -74.4192 257° West 282 325 10,400 2,460 Climbing New York Center
11:04PM 40.8953 -74.5400 273° West 304 350 13,100 2,280 Climbing New York Center
11:05PM 40.8853 -74.6519 263° West 333 383 15,000 1,800 Climbing New York Center
11:06PM 40.8678 -74.7992 261° West 372 428 16,700 1,920 Climbing New York Center
11:07PM 40.8486 -74.9353 259° West 382 440 18,900 2,040 Climbing New York Center
11:08PM 40.8289 -75.0794 260° West 387 445 20,900 1,920 Climbing New York Center
11:09PM 40.8108 -75.2264 261° West 401 461 22,900 1,980 Climbing New York Center
11:10PM 40.7889 -75.3647 258° West 418 481 24,900 1,920 Climbing New York Center
11:11PM 40.7661 -75.5194 259° West 429 494 26,700 1,680 Climbing New York Center
11:12PM 40.7533 -75.6800 264° West 435 501 28,300 1,440 Climbing New York Center
11:13PM 40.7728 -75.8594 278° West 443 510 29,700 1,200 Climbing New York Center
11:14PM 40.7925 -76.0283 279° West 456 525 30,700 960 Climbing New York Center
11:15PM 40.8117 -76.2025 278° West 470 541 31,700 900 Climbing New York Center
11:16PM 40.8308 -76.3714 279° West 470 541 32,600 900 Climbing New York Center
11:17PM 40.8542 -76.5406 280° West 470 541 33,600 960 Climbing New York Center
11:18PM 40.8708 -76.7067 278° West 470 541 34,600 900 Climbing New York Center
11:19PM 40.8892 -76.8786 278° West 470 541 35,500 840 Climbing New York Center
11:20PM 40.9075 -77.0450 278° West 470 541 36,300 720 Climbing New York Center
11:21PM 40.9239 -77.2058 278° West 470 541 37,000 600 Climbing New York Center
11:22PM 40.9442 -77.3700 279° West 465 535 37,600 300 Climbing New York Center
11:24PM 40.9744 -77.6678 278° West 458 527 38,000 120 Climbing Cleveland Center
11:25PM 40.9911 -77.8350 278° West 463 533 38,000  Level Cleveland Center
11:26PM 41.0094 -78.0019 278° West 463 533 38,000  Level Cleveland Center
11:27PM 41.0258 -78.1719 277° West 463 533 38,000 300 Level Cleveland Center
11:28PM 41.0461 -78.3503 279° West 463 533 38,600 600 Climbing Cleveland Center
11:29PM 41.0617 -78.5178 277° West 463 533 39,200 540 Climbing Cleveland Center
11:30PM 41.0769 -78.6742 277° West 458 527 39,700 360 Climbing Cleveland Center
11:31PM 41.0897 -78.8336 276° West 447 514 40,000 120 Climbing Cleveland Center
11:32PM 41.1047 -78.9931 277° West 442 509 40,000  Level Cleveland Center
11:33PM 41.1214 -79.1553 278° West 442 509 40,000  Level Cleveland Center
11:34PM 41.1339 -79.3178 276° West 442 509 40,000  Level Cleveland Center
11:35PM 41.1481 -79.4800 277° West 442 509 40,000  Level Cleveland Center
11:36PM 41.1639 -79.6453 277° West 442 509 40,000  Level Cleveland Center
11:37PM 41.1756 -79.8136 275° West 448 516 40,000  Level Cleveland Center
11:38PM 41.1869 -79.9622 276° West 454 522 40,000  Level Cleveland Center
11:39PM 41.2044 -80.1389 278° West 448 516 40,000  Level Cleveland Center
11:40PM 41.2156 -80.3017 275° West 448 516 40,000  Level Cleveland Center
11:41PM 41.2261 -80.4506 275° West 448 516 40,000  Level Cleveland Center
11:42PM 41.2386 -80.6108 276° West 443 510 40,000  Level Cleveland Center
11:43PM 41.2511 -80.7764 276° West 448 516 40,000  Level Cleveland Center
11:44PM 41.2653 -80.9561 276° West 448 516 40,000  Level Cleveland Center
11:45PM 41.2769 -81.1192 275° West 448 516 40,000  Level Cleveland Center
11:46PM 41.2886 -81.2878 275° West 448 516 40,000  Level Cleveland Center
11:47PM 41.3022 -81.4511 276° West 448 516 40,000  Level Cleveland Center
11:48PM 41.3153 -81.6117 276° West 443 510 40,000  Level Cleveland Center
11:49PM 41.3242 -81.7719 274° West 443 510 40,000  Level Cleveland Center
11:50PM 41.3328 -81.9353 274° West 443 510 40,000  Level Cleveland Center
11:51PM 41.3453 -82.0989 276° West 443 510 40,000  Level Cleveland Center
11:52PM 41.3533 -82.2678 274° West 451 519 40,000  Level Cleveland Center
11:53PM 41.3633 -82.4286 275° West 446 513 40,000  Level Cleveland Center
11:54PM 41.3733 -82.5892 275° West 446 513 40,000  Level Cleveland Center
11:55PM 41.3808 -82.7500 274° West 446 513 40,000  Level Cleveland Center
11:56PM 41.3900 -82.9164 274° West 446 513 40,000  Level Cleveland Center
11:57PM 41.4011 -83.0800 275° West 446 513 40,000  Level Cleveland Center
11:58PM 41.4064 -83.2217 273° West 441 507 40,000  Level Cleveland Center
11:59PM 41.4150 -83.3853 274° West 441 507 40,000  Level Cleveland Center
12:00AM 41.4233 -83.5492 274° West 441 507 40,000  Level Cleveland Center
12:01AM 41.4314 -83.7100 274° West 441 507 40,000  Level Cleveland Center
12:02AM 41.4375 -83.8711 273° West 441 507 40,000  Level Cleveland Center
12:03AM 41.4453 -84.0322 274° West 446 513 40,000  Level Cleveland Center
12:05AM 41.4631 -84.3328 275° West 431 496 40,000  Level Chicago Center
12:06AM 41.4697 -84.4911 273° West 430 495 40,000 -60 Level Chicago Center
12:07AM 41.4767 -84.6503 273° West 431 496 39,900 -780 Descending Chicago Center
12:08AM 41.4831 -84.8119 273° West 437 503 38,500 -1,860 Descending Chicago Center
12:09AM 41.4886 -84.9747 273° West 439 505 36,200 -2,520 Descending Chicago Center
12:10AM 41.4925 -85.1369 272° West 439 505 33,400 -2,700 Descending Chicago Center
12:11AM 41.4953 -85.2981 271° West 431 496 30,800 -2,580 Descending Chicago Center
12:12AM 41.4978 -85.4572 271° West 423 487 28,200 -2,580 Descending Chicago Center
12:13AM 41.5031 -85.6086 273° West 403 464 25,600 -2,580 Descending Chicago Center
12:14AM 41.5058 -85.7525 272° West 390 449 23,100 -2,460 Descending Chicago Center
12:15AM 41.5089 -85.8944 272° West 385 443 20,600 -2,340 Descending Chicago Center
12:16AM 41.5111 -86.0300 271° West 372 428 18,500 -2,040 Descending Chicago Center
12:17AM 41.5136 -86.1656 271° West 367 422 16,600 -2,100 Descending Chicago Center
12:18AM 41.5167 -86.3000 272° West 362 417 14,300 -2,220 Descending Chicago Center
12:19AM 41.5175 -86.4333 271° West 359 413 12,200 -1,620 Descending Chicago Center
12:20AM 41.5203 -86.5614 272° West 349 402 11,100 -1,080 Descending Chicago Center
12:21AM 41.5208 -86.6864 270° West 340 391 10,100 -600 Descending Chicago Center
12:22AM 41.5203 -86.8283 270° West 332 382 10,000 -60 Descending Chicago Center
12:23AM 41.5178 -86.9525 269° West 334 384 10,000  Level Chicago Center
12:24AM 41.5164 -87.0758 269° West 334 384 10,000  Level Chicago Center
12:24AM 41.5167 -87.1500 270° West 333 383 10,000 -180 Level Chicago TRACON
12:25AM 41.5167 -87.2667 270° West 289 333 9,800 -900 Descending Chicago TRACON
12:27AM 41.5117 -87.3997 267° West 265 305 7,900 -1,440 Descending Chicago Center
12:28AM 41.5108 -87.4956 269° West 261 300 6,400 -1,440 Descending Chicago Center
12:29AM 41.5097 -87.5889 269° West 257 296 5,000 -1,200 Descending Chicago Center
12:30AM 41.5089 -87.6803 269° West 253 291 4,100 -540 Descending Chicago Center
12:31AM 41.5103 -87.7736 271° West 252 290 4,000 -60 Descending Chicago Center
12:32AM 41.5417 -87.8481 299° West 258 297 4,000 -60 Level Chicago Center
12:33AM 41.6008 -87.8983 328° Northwest 257 296 3,900 -660 Descending Chicago Center
12:34AM 41.6764 -87.9400 338° Northwest 267 307 2,700 -720 Descending Chicago Center
12:35AM 41.7047 -87.8661 63° Northeast 242 278 2,500 -300 Descending Chicago Center
12:35AM 41.7167 -87.8333 64° Northeast 200 230 2,300 -720 Descending Chicago TRACON
12:37AM 41.7656 -87.7775 40° Northeast 167 192 1,100 -600 Descending Chicago Center
12:38AM 41.7914 -87.7453 43° Northeast 157 181 800 -300 Descending Chicago Center